sensor_id;sensor_type;location;lat;lon;timestamp;P1;durP1;ratioP1;P2;durP2;ratioP2
26946;SDS011;14501;52.282;10.560;2024-02-04T00:00:47;4.38;;;2.22;;
26946;SDS011;14501;52.282;10.560;2024-02-04T00:03:13;5.82;;;2.55;;
26946;SDS011;14501;52.282;10.560;2024-02-04T00:05:39;8.13;;;2.80;;
26946;SDS011;14501;52.282;10.560;2024-02-04T00:08:05;5.25;;;2.53;;
26946;SDS011;14501;52.282;10.560;2024-02-04T00:10:31;5.28;;;2.50;;
26946;SDS011;14501;52.282;10.560;2024-02-04T00:12:57;4.63;;;2.78;;
26946;SDS011;14501;52.282;10.560;2024-02-04T00:15:22;4.10;;;2.53;;
26946;SDS011;14501;52.282;10.560;2024-02-04T00:17:49;4.30;;;2.53;;
26946;SDS011;14501;52.282;10.560;2024-02-04T00:20:14;4.47;;;2.45;;
26946;SDS011;14501;52.282;10.560;2024-02-04T00:22:40;3.10;;;2.20;;
26946;SDS011;14501;52.282;10.560;2024-02-04T00:25:06;4.70;;;2.20;;
26946;SDS011;14501;52.282;10.560;2024-02-04T00:27:35;10.93;;;2.40;;
26946;SDS011;14501;52.282;10.560;2024-02-04T00:30:00;5.65;;;2.63;;
26946;SDS011;14501;52.282;10.560;2024-02-04T00:32:26;6.32;;;2.75;;
26946;SDS011;14501;52.282;10.560;2024-02-04T00:34:52;6.95;;;3.28;;
26946;SDS011;14501;52.282;10.560;2024-02-04T00:37:18;3.88;;;2.72;;
26946;SDS011;14501;52.282;10.560;2024-02-04T00:39:44;10.40;;;2.92;;
26946;SDS011;14501;52.282;10.560;2024-02-04T00:42:10;6.15;;;2.53;;
26946;SDS011;14501;52.282;10.560;2024-02-04T00:44:35;4.45;;;3.15;;
26946;SDS011;14501;52.282;10.560;2024-02-04T00:47:01;5.15;;;3.10;;
26946;SDS011;14501;52.282;10.560;2024-02-04T00:49:27;5.07;;;2.67;;
26946;SDS011;14501;52.282;10.560;2024-02-04T00:51:53;5.90;;;3.00;;
26946;SDS011;14501;52.282;10.560;2024-02-04T00:54:18;8.00;;;2.88;;
26946;SDS011;14501;52.282;10.560;2024-02-04T00:56:44;4.53;;;2.33;;
26946;SDS011;14501;52.282;10.560;2024-02-04T00:59:10;4.03;;;2.60;;
26946;SDS011;14501;52.282;10.560;2024-02-04T01:01:37;6.47;;;2.70;;
26946;SDS011;14501;52.282;10.560;2024-02-04T01:04:03;8.13;;;2.63;;
26946;SDS011;14501;52.282;10.560;2024-02-04T01:06:28;5.93;;;3.30;;
26946;SDS011;14501;52.282;10.560;2024-02-04T01:08:55;8.60;;;3.10;;
26946;SDS011;14501;52.282;10.560;2024-02-04T01:11:21;8.15;;;2.88;;
26946;SDS011;14501;52.282;10.560;2024-02-04T01:13:47;5.88;;;2.63;;
26946;SDS011;14501;52.282;10.560;2024-02-04T01:16:12;6.57;;;2.72;;
26946;SDS011;14501;52.282;10.560;2024-02-04T01:18:38;5.50;;;3.10;;
26946;SDS011;14501;52.282;10.560;2024-02-04T01:21:04;6.35;;;3.47;;
26946;SDS011;14501;52.282;10.560;2024-02-04T01:23:29;9.50;;;3.22;;
26946;SDS011;14501;52.282;10.560;2024-02-04T01:25:55;7.00;;;3.00;;
26946;SDS011;14501;52.282;10.560;2024-02-04T01:28:21;10.73;;;3.75;;
26946;SDS011;14501;52.282;10.560;2024-02-04T01:30:46;5.40;;;3.10;;
26946;SDS011;14501;52.282;10.560;2024-02-04T01:33:12;4.00;;;2.38;;
26946;SDS011;14501;52.282;10.560;2024-02-04T01:35:37;7.28;;;3.47;;
26946;SDS011;14501;52.282;10.560;2024-02-04T01:38:03;6.03;;;3.53;;
26946;SDS011;14501;52.282;10.560;2024-02-04T01:40:29;4.82;;;3.00;;
26946;SDS011;14501;52.282;10.560;2024-02-04T01:42:54;6.68;;;3.53;;
26946;SDS011;14501;52.282;10.560;2024-02-04T01:45:21;7.32;;;3.38;;
26946;SDS011;14501;52.282;10.560;2024-02-04T01:47:47;6.15;;;3.17;;
26946;SDS011;14501;52.282;10.560;2024-02-04T01:50:13;6.60;;;3.60;;
26946;SDS011;14501;52.282;10.560;2024-02-04T01:52:40;7.47;;;3.53;;
26946;SDS011;14501;52.282;10.560;2024-02-04T01:55:09;5.28;;;3.28;;
26946;SDS011;14501;52.282;10.560;2024-02-04T01:57:35;6.70;;;3.80;;
26946;SDS011;14501;52.282;10.560;2024-02-04T02:00:00;8.18;;;3.95;;
26946;SDS011;14501;52.282;10.560;2024-02-04T02:02:28;7.75;;;3.03;;
26946;SDS011;14501;52.282;10.560;2024-02-04T02:04:55;4.05;;;2.72;;
26946;SDS011;14501;52.282;10.560;2024-02-04T02:07:21;5.07;;;3.33;;
26946;SDS011;14501;52.282;10.560;2024-02-04T02:09:49;8.68;;;4.55;;
26946;SDS011;14501;52.282;10.560;2024-02-04T02:12:18;6.65;;;3.15;;
26946;SDS011;14501;52.282;10.560;2024-02-04T02:14:50;6.07;;;3.30;;
26946;SDS011;14501;52.282;10.560;2024-02-04T02:23:07;11.10;;;3.55;;
26946;SDS011;14501;52.282;10.560;2024-02-04T02:25:36;7.80;;;3.60;;
26946;SDS011;14501;52.282;10.560;2024-02-04T02:28:03;7.63;;;3.90;;
26946;SDS011;14501;52.282;10.560;2024-02-04T02:30:29;6.15;;;3.47;;
26946;SDS011;14501;52.282;10.560;2024-02-04T02:32:55;6.00;;;3.50;;
26946;SDS011;14501;52.282;10.560;2024-02-04T02:35:22;8.93;;;3.80;;
26946;SDS011;14501;52.282;10.560;2024-02-04T02:43:04;9.52;;;4.43;;
26946;SDS011;14501;52.282;10.560;2024-02-04T02:45:31;9.70;;;4.45;;
26946;SDS011;14501;52.282;10.560;2024-02-04T02:47:57;6.88;;;3.97;;
26946;SDS011;14501;52.282;10.560;2024-02-04T02:50:24;12.93;;;4.40;;
26946;SDS011;14501;52.282;10.560;2024-02-04T02:52:50;7.85;;;4.35;;
26946;SDS011;14501;52.282;10.560;2024-02-04T02:55:15;5.40;;;3.58;;
26946;SDS011;14501;52.282;10.560;2024-02-04T02:57:41;6.75;;;4.18;;
26946;SDS011;14501;52.282;10.560;2024-02-04T03:00:07;6.85;;;4.18;;
26946;SDS011;14501;52.282;10.560;2024-02-04T03:02:34;15.23;;;4.43;;
26946;SDS011;14501;52.282;10.560;2024-02-04T03:04:59;12.18;;;4.25;;
26946;SDS011;14501;52.282;10.560;2024-02-04T03:07:25;8.88;;;4.57;;
26946;SDS011;14501;52.282;10.560;2024-02-04T03:09:52;6.97;;;4.88;;
26946;SDS011;14501;52.282;10.560;2024-02-04T03:12:18;7.88;;;4.22;;
26946;SDS011;14501;52.282;10.560;2024-02-04T03:14:44;8.30;;;3.63;;
26946;SDS011;14501;52.282;10.560;2024-02-04T03:17:10;10.30;;;4.82;;
26946;SDS011;14501;52.282;10.560;2024-02-04T03:19:37;11.02;;;4.00;;
26946;SDS011;14501;52.282;10.560;2024-02-04T03:22:02;9.55;;;4.05;;
26946;SDS011;14501;52.282;10.560;2024-02-04T03:24:28;7.78;;;4.72;;
26946;SDS011;14501;52.282;10.560;2024-02-04T03:26:54;15.88;;;4.20;;
26946;SDS011;14501;52.282;10.560;2024-02-04T03:29:20;10.18;;;3.97;;
26946;SDS011;14501;52.282;10.560;2024-02-04T03:31:45;6.18;;;4.38;;
26946;SDS011;14501;52.282;10.560;2024-02-04T03:34:11;5.45;;;3.83;;
26946;SDS011;14501;52.282;10.560;2024-02-04T03:36:37;5.45;;;3.50;;
26946;SDS011;14501;52.282;10.560;2024-02-04T03:39:05;6.88;;;3.80;;
26946;SDS011;14501;52.282;10.560;2024-02-04T03:41:31;10.68;;;4.53;;
26946;SDS011;14501;52.282;10.560;2024-02-04T03:43:57;6.75;;;4.00;;
26946;SDS011;14501;52.282;10.560;2024-02-04T03:46:22;10.05;;;3.65;;
26946;SDS011;14501;52.282;10.560;2024-02-04T03:48:48;8.30;;;4.07;;
26946;SDS011;14501;52.282;10.560;2024-02-04T03:51:17;8.65;;;3.70;;
26946;SDS011;14501;52.282;10.560;2024-02-04T03:53:44;6.63;;;3.45;;
26946;SDS011;14501;52.282;10.560;2024-02-04T03:56:10;7.18;;;4.00;;
26946;SDS011;14501;52.282;10.560;2024-02-04T03:58:36;8.05;;;3.88;;
26946;SDS011;14501;52.282;10.560;2024-02-04T04:01:01;9.95;;;4.15;;
26946;SDS011;14501;52.282;10.560;2024-02-04T04:03:27;6.57;;;3.42;;
26946;SDS011;14501;52.282;10.560;2024-02-04T04:05:53;9.50;;;4.15;;
26946;SDS011;14501;52.282;10.560;2024-02-04T04:08:19;6.45;;;3.60;;
26946;SDS011;14501;52.282;10.560;2024-02-04T04:10:44;12.57;;;4.50;;
26946;SDS011;14501;52.282;10.560;2024-02-04T04:13:11;6.88;;;3.78;;
26946;SDS011;14501;52.282;10.560;2024-02-04T04:15:37;5.82;;;3.80;;
26946;SDS011;14501;52.282;10.560;2024-02-04T04:18:03;7.63;;;4.47;;
26946;SDS011;14501;52.282;10.560;2024-02-04T04:20:29;8.48;;;4.28;;
26946;SDS011;14501;52.282;10.560;2024-02-04T04:22:55;9.07;;;3.88;;
26946;SDS011;14501;52.282;10.560;2024-02-04T04:25:21;7.63;;;4.32;;
26946;SDS011;14501;52.282;10.560;2024-02-04T04:27:46;11.85;;;4.65;;
26946;SDS011;14501;52.282;10.560;2024-02-04T04:30:12;9.63;;;4.47;;
26946;SDS011;14501;52.282;10.560;2024-02-04T04:32:38;5.53;;;3.20;;
26946;SDS011;14501;52.282;10.560;2024-02-04T04:35:04;8.25;;;3.38;;
26946;SDS011;14501;52.282;10.560;2024-02-04T04:37:29;7.90;;;3.92;;
26946;SDS011;14501;52.282;10.560;2024-02-04T04:39:55;5.35;;;3.60;;
26946;SDS011;14501;52.282;10.560;2024-02-04T04:42:20;9.73;;;4.00;;
26946;SDS011;14501;52.282;10.560;2024-02-04T04:44:46;5.30;;;3.80;;
26946;SDS011;14501;52.282;10.560;2024-02-04T04:47:12;7.63;;;3.92;;
26946;SDS011;14501;52.282;10.560;2024-02-04T04:49:39;6.53;;;3.42;;
26946;SDS011;14501;52.282;10.560;2024-02-04T04:52:04;6.18;;;2.92;;
26946;SDS011;14501;52.282;10.560;2024-02-04T04:54:30;9.75;;;3.70;;
26946;SDS011;14501;52.282;10.560;2024-02-04T04:56:56;11.30;;;4.45;;
26946;SDS011;14501;52.282;10.560;2024-02-04T04:59:21;7.13;;;4.32;;
26946;SDS011;14501;52.282;10.560;2024-02-04T05:01:47;6.82;;;4.13;;
26946;SDS011;14501;52.282;10.560;2024-02-04T05:04:14;8.77;;;4.00;;
26946;SDS011;14501;52.282;10.560;2024-02-04T05:06:41;10.45;;;5.03;;
26946;SDS011;14501;52.282;10.560;2024-02-04T05:09:07;7.03;;;4.57;;
26946;SDS011;14501;52.282;10.560;2024-02-04T05:11:33;8.77;;;3.95;;
26946;SDS011;14501;52.282;10.560;2024-02-04T05:13:58;9.88;;;4.88;;
26946;SDS011;14501;52.282;10.560;2024-02-04T05:16:24;7.68;;;4.82;;
26946;SDS011;14501;52.282;10.560;2024-02-04T05:18:50;10.00;;;4.13;;
26946;SDS011;14501;52.282;10.560;2024-02-04T05:21:15;6.25;;;3.90;;
26946;SDS011;14501;52.282;10.560;2024-02-04T05:23:41;6.30;;;3.83;;
26946;SDS011;14501;52.282;10.560;2024-02-04T05:26:06;6.35;;;4.03;;
26946;SDS011;14501;52.282;10.560;2024-02-04T05:28:32;8.43;;;3.75;;
26946;SDS011;14501;52.282;10.560;2024-02-04T05:30:58;6.78;;;4.07;;
26946;SDS011;14501;52.282;10.560;2024-02-04T05:33:23;8.40;;;4.68;;
26946;SDS011;14501;52.282;10.560;2024-02-04T05:35:49;9.65;;;4.20;;
26946;SDS011;14501;52.282;10.560;2024-02-04T05:38:16;11.77;;;3.65;;
26946;SDS011;14501;52.282;10.560;2024-02-04T05:40:42;10.85;;;4.40;;
26946;SDS011;14501;52.282;10.560;2024-02-04T05:43:07;11.95;;;4.45;;
26946;SDS011;14501;52.282;10.560;2024-02-04T05:45:35;6.60;;;3.85;;
26946;SDS011;14501;52.282;10.560;2024-02-04T05:48:06;7.03;;;4.20;;
26946;SDS011;14501;52.282;10.560;2024-02-04T05:50:32;8.10;;;4.25;;
26946;SDS011;14501;52.282;10.560;2024-02-04T05:52:58;7.30;;;4.30;;
26946;SDS011;14501;52.282;10.560;2024-02-04T05:55:23;7.50;;;4.70;;
26946;SDS011;14501;52.282;10.560;2024-02-04T05:57:49;12.23;;;4.22;;
26946;SDS011;14501;52.282;10.560;2024-02-04T06:00:15;8.20;;;4.57;;
26946;SDS011;14501;52.282;10.560;2024-02-04T06:02:41;9.00;;;4.35;;
26946;SDS011;14501;52.282;10.560;2024-02-04T06:05:08;9.90;;;4.97;;
26946;SDS011;14501;52.282;10.560;2024-02-04T06:07:37;8.07;;;4.90;;
26946;SDS011;14501;52.282;10.560;2024-02-04T06:10:03;8.80;;;4.55;;
26946;SDS011;14501;52.282;10.560;2024-02-04T06:12:29;11.32;;;5.00;;
26946;SDS011;14501;52.282;10.560;2024-02-04T06:14:55;12.52;;;4.63;;
26946;SDS011;14501;52.282;10.560;2024-02-04T06:17:20;9.10;;;4.65;;
26946;SDS011;14501;52.282;10.560;2024-02-04T06:19:46;9.02;;;4.88;;
26946;SDS011;14501;52.282;10.560;2024-02-04T06:22:12;8.10;;;4.60;;
26946;SDS011;14501;52.282;10.560;2024-02-04T06:24:38;9.20;;;5.07;;
26946;SDS011;14501;52.282;10.560;2024-02-04T06:27:05;8.40;;;4.70;;
26946;SDS011;14501;52.282;10.560;2024-02-04T06:29:35;11.32;;;5.15;;
26946;SDS011;14501;52.282;10.560;2024-02-04T06:32:02;7.45;;;4.43;;
26946;SDS011;14501;52.282;10.560;2024-02-04T06:34:28;10.63;;;4.55;;
26946;SDS011;14501;52.282;10.560;2024-02-04T06:36:53;10.63;;;5.32;;
26946;SDS011;14501;52.282;10.560;2024-02-04T06:39:19;8.18;;;4.97;;
26946;SDS011;14501;52.282;10.560;2024-02-04T06:41:44;11.30;;;4.35;;
26946;SDS011;14501;52.282;10.560;2024-02-04T06:44:11;9.55;;;4.53;;
26946;SDS011;14501;52.282;10.560;2024-02-04T06:46:37;9.20;;;4.68;;
26946;SDS011;14501;52.282;10.560;2024-02-04T06:49:02;9.45;;;4.40;;
26946;SDS011;14501;52.282;10.560;2024-02-04T06:51:28;10.32;;;3.95;;
26946;SDS011;14501;52.282;10.560;2024-02-04T06:53:54;7.05;;;4.40;;
26946;SDS011;14501;52.282;10.560;2024-02-04T06:56:19;8.55;;;4.13;;
26946;SDS011;14501;52.282;10.560;2024-02-04T06:58:45;6.80;;;3.80;;
26946;SDS011;14501;52.282;10.560;2024-02-04T07:01:11;9.43;;;4.43;;
26946;SDS011;14501;52.282;10.560;2024-02-04T07:03:37;7.18;;;3.85;;
26946;SDS011;14501;52.282;10.560;2024-02-04T07:06:03;5.90;;;3.40;;
26946;SDS011;14501;52.282;10.560;2024-02-04T07:08:29;8.93;;;3.50;;
26946;SDS011;14501;52.282;10.560;2024-02-04T07:10:55;6.32;;;3.50;;
26946;SDS011;14501;52.282;10.560;2024-02-04T07:13:20;4.50;;;2.70;;
26946;SDS011;14501;52.282;10.560;2024-02-04T07:15:47;6.72;;;2.95;;
26946;SDS011;14501;52.282;10.560;2024-02-04T07:18:13;7.45;;;2.88;;
26946;SDS011;14501;52.282;10.560;2024-02-04T07:20:38;7.80;;;3.17;;
26946;SDS011;14501;52.282;10.560;2024-02-04T07:23:04;7.03;;;3.20;;
26946;SDS011;14501;52.282;10.560;2024-02-04T07:25:30;6.65;;;2.92;;
26946;SDS011;14501;52.282;10.560;2024-02-04T07:27:57;4.55;;;2.85;;
26946;SDS011;14501;52.282;10.560;2024-02-04T07:30:23;4.47;;;2.50;;
26946;SDS011;14501;52.282;10.560;2024-02-04T07:32:49;3.97;;;2.25;;
26946;SDS011;14501;52.282;10.560;2024-02-04T07:35:15;3.67;;;2.60;;
26946;SDS011;14501;52.282;10.560;2024-02-04T07:37:41;5.20;;;2.08;;
26946;SDS011;14501;52.282;10.560;2024-02-04T07:40:07;4.53;;;2.53;;
26946;SDS011;14501;52.282;10.560;2024-02-04T07:42:33;5.07;;;2.58;;
26946;SDS011;14501;52.282;10.560;2024-02-04T07:44:59;5.80;;;2.25;;
26946;SDS011;14501;52.282;10.560;2024-02-04T07:47:24;6.57;;;2.38;;
26946;SDS011;14501;52.282;10.560;2024-02-04T07:49:51;5.60;;;1.95;;
26946;SDS011;14501;52.282;10.560;2024-02-04T07:52:17;4.00;;;1.95;;
26946;SDS011;14501;52.282;10.560;2024-02-04T07:54:42;2.83;;;2.05;;
26946;SDS011;14501;52.282;10.560;2024-02-04T07:57:12;2.50;;;1.95;;
26946;SDS011;14501;52.282;10.560;2024-02-04T07:59:38;3.55;;;1.90;;
26946;SDS011;14501;52.282;10.560;2024-02-04T08:02:04;2.72;;;1.85;;
26946;SDS011;14501;52.282;10.560;2024-02-04T08:04:31;5.68;;;2.08;;
26946;SDS011;14501;52.282;10.560;2024-02-04T08:06:57;3.00;;;1.95;;
26946;SDS011;14501;52.282;10.560;2024-02-04T08:09:23;7.10;;;1.83;;
26946;SDS011;14501;52.282;10.560;2024-02-04T08:11:48;6.10;;;2.42;;
26946;SDS011;14501;52.282;10.560;2024-02-04T08:14:14;4.82;;;1.65;;
26946;SDS011;14501;52.282;10.560;2024-02-04T08:16:40;4.00;;;1.65;;
26946;SDS011;14501;52.282;10.560;2024-02-04T08:19:07;2.97;;;1.77;;
26946;SDS011;14501;52.282;10.560;2024-02-04T08:21:33;5.75;;;1.70;;
26946;SDS011;14501;52.282;10.560;2024-02-04T08:23:59;6.65;;;1.95;;
26946;SDS011;14501;52.282;10.560;2024-02-04T08:26:24;2.22;;;1.67;;
26946;SDS011;14501;52.282;10.560;2024-02-04T08:28:50;2.75;;;1.13;;
26946;SDS011;14501;52.282;10.560;2024-02-04T08:31:16;1.25;;;1.05;;
26946;SDS011;14501;52.282;10.560;2024-02-04T08:33:41;1.42;;;1.33;;
26946;SDS011;14501;52.282;10.560;2024-02-04T08:36:07;1.42;;;1.25;;
26946;SDS011;14501;52.282;10.560;2024-02-04T08:38:35;2.20;;;1.08;;
26946;SDS011;14501;52.282;10.560;2024-02-04T08:41:02;3.15;;;1.13;;
26946;SDS011;14501;52.282;10.560;2024-02-04T08:43:28;2.05;;;1.10;;
26946;SDS011;14501;52.282;10.560;2024-02-04T08:45:53;4.40;;;1.33;;
26946;SDS011;14501;52.282;10.560;2024-02-04T08:48:19;1.27;;;1.05;;
26946;SDS011;14501;52.282;10.560;2024-02-04T08:50:45;2.88;;;1.05;;
26946;SDS011;14501;52.282;10.560;2024-02-04T08:53:10;1.73;;;0.90;;
26946;SDS011;14501;52.282;10.560;2024-02-04T08:55:36;1.38;;;1.00;;
26946;SDS011;14501;52.282;10.560;2024-02-04T08:58:01;3.92;;;1.23;;
26946;SDS011;14501;52.282;10.560;2024-02-04T09:00:27;3.20;;;1.17;;
26946;SDS011;14501;52.282;10.560;2024-02-04T09:02:53;3.90;;;0.80;;
26946;SDS011;14501;52.282;10.560;2024-02-04T09:05:18;1.63;;;0.75;;
26946;SDS011;14501;52.282;10.560;2024-02-04T09:07:45;1.38;;;0.80;;
26946;SDS011;14501;52.282;10.560;2024-02-04T09:10:11;3.95;;;0.70;;
26946;SDS011;14501;52.282;10.560;2024-02-04T09:12:37;2.03;;;1.00;;
26946;SDS011;14501;52.282;10.560;2024-02-04T09:15:03;0.95;;;0.80;;
26946;SDS011;14501;52.282;10.560;2024-02-04T09:17:29;1.00;;;0.75;;
26946;SDS011;14501;52.282;10.560;2024-02-04T09:19:57;2.67;;;0.73;;
26946;SDS011;14501;52.282;10.560;2024-02-04T09:22:22;2.53;;;1.02;;
26946;SDS011;14501;52.282;10.560;2024-02-04T09:24:48;0.82;;;0.77;;
26946;SDS011;14501;52.282;10.560;2024-02-04T09:27:14;5.10;;;1.30;;
26946;SDS011;14501;52.282;10.560;2024-02-04T09:29:39;3.92;;;1.02;;
26946;SDS011;14501;52.282;10.560;2024-02-04T09:32:05;2.67;;;0.60;;
26946;SDS011;14501;52.282;10.560;2024-02-04T09:34:31;1.65;;;0.70;;
26946;SDS011;14501;52.282;10.560;2024-02-04T09:36:56;0.60;;;0.60;;
26946;SDS011;14501;52.282;10.560;2024-02-04T09:39:22;1.75;;;0.50;;
26946;SDS011;14501;52.282;10.560;2024-02-04T09:41:47;0.52;;;0.43;;
26946;SDS011;14501;52.282;10.560;2024-02-04T09:44:13;0.82;;;0.65;;
26946;SDS011;14501;52.282;10.560;2024-02-04T09:46:40;3.15;;;0.80;;
26946;SDS011;14501;52.282;10.560;2024-02-04T09:49:05;2.10;;;0.80;;
26946;SDS011;14501;52.282;10.560;2024-02-04T09:51:32;2.65;;;1.05;;
26946;SDS011;14501;52.282;10.560;2024-02-04T09:53:58;8.15;;;0.85;;
26946;SDS011;14501;52.282;10.560;2024-02-04T09:56:31;5.63;;;1.20;;
26946;SDS011;14501;52.282;10.560;2024-02-04T09:58:58;1.00;;;0.70;;
26946;SDS011;14501;52.282;10.560;2024-02-04T10:01:23;5.57;;;1.25;;
26946;SDS011;14501;52.282;10.560;2024-02-04T10:03:51;5.45;;;1.30;;
26946;SDS011;14501;52.282;10.560;2024-02-04T10:06:17;4.07;;;1.10;;
26946;SDS011;14501;52.282;10.560;2024-02-04T10:08:42;4.30;;;1.00;;
26946;SDS011;14501;52.282;10.560;2024-02-04T10:11:09;4.05;;;0.65;;
26946;SDS011;14501;52.282;10.560;2024-02-04T10:13:52;1.60;;;1.00;;
26946;SDS011;14501;52.282;10.560;2024-02-04T10:16:18;3.85;;;1.17;;
26946;SDS011;14501;52.282;10.560;2024-02-04T10:18:45;3.22;;;1.30;;
26946;SDS011;14501;52.282;10.560;2024-02-04T10:21:16;3.15;;;0.93;;
26946;SDS011;14501;52.282;10.560;2024-02-04T10:23:49;6.65;;;1.48;;
26946;SDS011;14501;52.282;10.560;2024-02-04T10:26:18;4.70;;;1.05;;
26946;SDS011;14501;52.282;10.560;2024-02-04T10:28:47;4.78;;;1.20;;
26946;SDS011;14501;52.282;10.560;2024-02-04T10:31:13;6.75;;;1.55;;
26946;SDS011;14501;52.282;10.560;2024-02-04T10:33:39;6.20;;;1.23;;
26946;SDS011;14501;52.282;10.560;2024-02-04T10:36:05;3.65;;;1.08;;
26946;SDS011;14501;52.282;10.560;2024-02-04T10:38:31;4.97;;;1.13;;
26946;SDS011;14501;52.282;10.560;2024-02-04T10:40:59;5.90;;;1.35;;
26946;SDS011;14501;52.282;10.560;2024-02-04T10:43:31;3.15;;;1.20;;
26946;SDS011;14501;52.282;10.560;2024-02-04T10:46:00;2.42;;;0.73;;
26946;SDS011;14501;52.282;10.560;2024-02-04T10:48:34;3.35;;;1.45;;
26946;SDS011;14501;52.282;10.560;2024-02-04T10:53:42;2.53;;;0.85;;
26946;SDS011;14501;52.282;10.560;2024-02-04T10:56:25;5.68;;;1.00;;
26946;SDS011;14501;52.282;10.560;2024-02-04T10:58:57;5.38;;;1.38;;
26946;SDS011;14501;52.282;10.560;2024-02-04T11:01:25;3.38;;;1.10;;
26946;SDS011;14501;52.282;10.560;2024-02-04T11:03:51;1.70;;;0.68;;
26946;SDS011;14501;52.282;10.560;2024-02-04T11:06:20;3.20;;;1.05;;
26946;SDS011;14501;52.282;10.560;2024-02-04T11:08:47;5.75;;;1.77;;
26946;SDS011;14501;52.282;10.560;2024-02-04T11:11:13;3.08;;;0.98;;
26946;SDS011;14501;52.282;10.560;2024-02-04T11:13:39;3.08;;;0.80;;
26946;SDS011;14501;52.282;10.560;2024-02-04T11:16:12;2.85;;;1.65;;
26946;SDS011;14501;52.282;10.560;2024-02-04T11:18:50;6.45;;;1.77;;
26946;SDS011;14501;52.282;10.560;2024-02-04T11:26:52;7.03;;;1.33;;
26946;SDS011;14501;52.282;10.560;2024-02-04T11:29:18;2.33;;;0.95;;
26946;SDS011;14501;52.282;10.560;2024-02-04T11:31:44;4.53;;;1.17;;
26946;SDS011;14501;52.282;10.560;2024-02-04T11:34:09;2.33;;;1.00;;
26946;SDS011;14501;52.282;10.560;2024-02-04T11:36:39;3.47;;;1.40;;
26946;SDS011;14501;52.282;10.560;2024-02-04T11:39:12;6.15;;;1.23;;
26946;SDS011;14501;52.282;10.560;2024-02-04T11:41:44;3.08;;;1.27;;
26946;SDS011;14501;52.282;10.560;2024-02-04T11:44:11;2.67;;;0.93;;
26946;SDS011;14501;52.282;10.560;2024-02-04T11:46:37;3.45;;;1.00;;
26946;SDS011;14501;52.282;10.560;2024-02-04T11:49:03;1.33;;;0.73;;
26946;SDS011;14501;52.282;10.560;2024-02-04T11:51:39;2.67;;;1.02;;
26946;SDS011;14501;52.282;10.560;2024-02-04T11:54:06;3.65;;;1.33;;
26946;SDS011;14501;52.282;10.560;2024-02-04T11:56:32;2.20;;;1.27;;
26946;SDS011;14501;52.282;10.560;2024-02-04T11:58:58;8.38;;;1.63;;
26946;SDS011;14501;52.282;10.560;2024-02-04T12:01:24;0.98;;;0.90;;
26946;SDS011;14501;52.282;10.560;2024-02-04T12:03:50;3.85;;;1.50;;
26946;SDS011;14501;52.282;10.560;2024-02-04T12:06:17;3.15;;;1.25;;
26946;SDS011;14501;52.282;10.560;2024-02-04T12:08:42;4.88;;;1.30;;
26946;SDS011;14501;52.282;10.560;2024-02-04T12:11:08;2.67;;;0.90;;
26946;SDS011;14501;52.282;10.560;2024-02-04T12:13:34;4.15;;;1.10;;
26946;SDS011;14501;52.282;10.560;2024-02-04T12:16:04;4.80;;;0.93;;
26946;SDS011;14501;52.282;10.560;2024-02-04T12:18:33;5.05;;;1.10;;
26946;SDS011;14501;52.282;10.560;2024-02-04T12:20:59;2.38;;;1.15;;
26946;SDS011;14501;52.282;10.560;2024-02-04T12:23:25;3.55;;;1.77;;
26946;SDS011;14501;52.282;10.560;2024-02-04T12:25:52;1.98;;;1.00;;
26946;SDS011;14501;52.282;10.560;2024-02-04T12:28:18;4.07;;;1.15;;
26946;SDS011;14501;52.282;10.560;2024-02-04T12:30:52;4.97;;;1.45;;
26946;SDS011;14501;52.282;10.560;2024-02-04T12:33:19;3.20;;;1.00;;
26946;SDS011;14501;52.282;10.560;2024-02-04T12:35:48;3.08;;;1.02;;
26946;SDS011;14501;52.282;10.560;2024-02-04T12:38:16;1.85;;;0.90;;
26946;SDS011;14501;52.282;10.560;2024-02-04T12:40:45;1.60;;;0.70;;
26946;SDS011;14501;52.282;10.560;2024-02-04T12:43:10;4.93;;;0.77;;
26946;SDS011;14501;52.282;10.560;2024-02-04T12:45:37;6.35;;;1.15;;
26946;SDS011;14501;52.282;10.560;2024-02-04T12:48:02;4.90;;;1.25;;
26946;SDS011;14501;52.282;10.560;2024-02-04T12:50:29;2.38;;;0.60;;
26946;SDS011;14501;52.282;10.560;2024-02-04T12:53:04;1.95;;;0.57;;
26946;SDS011;14501;52.282;10.560;2024-02-04T12:55:37;3.50;;;1.02;;
26946;SDS011;14501;52.282;10.560;2024-02-04T12:58:07;1.27;;;1.02;;
26946;SDS011;14501;52.282;10.560;2024-02-04T13:00:35;4.82;;;1.00;;
26946;SDS011;14501;52.282;10.560;2024-02-04T13:03:02;0.88;;;0.70;;
26946;SDS011;14501;52.282;10.560;2024-02-04T13:05:29;3.70;;;0.50;;
26946;SDS011;14501;52.282;10.560;2024-02-04T13:07:59;3.83;;;0.85;;
26946;SDS011;14501;52.282;10.560;2024-02-04T13:10:28;2.70;;;0.75;;
26946;SDS011;14501;52.282;10.560;2024-02-04T13:13:08;3.60;;;1.27;;
26946;SDS011;14501;52.282;10.560;2024-02-04T13:15:41;2.92;;;1.10;;
26946;SDS011;14501;52.282;10.560;2024-02-04T13:18:08;3.40;;;1.08;;
26946;SDS011;14501;52.282;10.560;2024-02-04T13:20:36;1.25;;;0.98;;
26946;SDS011;14501;52.282;10.560;2024-02-04T13:23:05;1.70;;;0.80;;
26946;SDS011;14501;52.282;10.560;2024-02-04T13:25:31;3.28;;;1.08;;
26946;SDS011;14501;52.282;10.560;2024-02-04T13:27:57;5.20;;;1.10;;
26946;SDS011;14501;52.282;10.560;2024-02-04T13:30:22;3.28;;;0.77;;
26946;SDS011;14501;52.282;10.560;2024-02-04T13:32:48;1.92;;;1.05;;
26946;SDS011;14501;52.282;10.560;2024-02-04T13:35:14;4.72;;;1.10;;
26946;SDS011;14501;52.282;10.560;2024-02-04T13:37:41;4.07;;;0.77;;
26946;SDS011;14501;52.282;10.560;2024-02-04T13:40:12;1.35;;;0.88;;
26946;SDS011;14501;52.282;10.560;2024-02-04T13:42:39;2.92;;;0.55;;
26946;SDS011;14501;52.282;10.560;2024-02-04T13:45:05;2.97;;;0.70;;
26946;SDS011;14501;52.282;10.560;2024-02-04T13:47:31;2.72;;;0.70;;
26946;SDS011;14501;52.282;10.560;2024-02-04T13:49:56;2.20;;;0.63;;
26946;SDS011;14501;52.282;10.560;2024-02-04T13:52:22;3.50;;;1.00;;
26946;SDS011;14501;52.282;10.560;2024-02-04T13:54:48;1.73;;;0.90;;
26946;SDS011;14501;52.282;10.560;2024-02-04T13:57:14;1.88;;;0.43;;
26946;SDS011;14501;52.282;10.560;2024-02-04T13:59:40;1.67;;;0.73;;
26946;SDS011;14501;52.282;10.560;2024-02-04T14:02:06;0.80;;;0.77;;
26946;SDS011;14501;52.282;10.560;2024-02-04T14:04:33;0.98;;;0.80;;
26946;SDS011;14501;52.282;10.560;2024-02-04T14:06:59;1.33;;;0.90;;
26946;SDS011;14501;52.282;10.560;2024-02-04T14:09:26;1.33;;;0.82;;
26946;SDS011;14501;52.282;10.560;2024-02-04T14:11:52;0.88;;;0.57;;
26946;SDS011;14501;52.282;10.560;2024-02-04T14:14:19;3.97;;;1.00;;
26946;SDS011;14501;52.282;10.560;2024-02-04T14:16:45;2.22;;;0.70;;
26946;SDS011;14501;52.282;10.560;2024-02-04T14:19:12;1.30;;;0.60;;
26946;SDS011;14501;52.282;10.560;2024-02-04T14:21:38;3.35;;;1.00;;
26946;SDS011;14501;52.282;10.560;2024-02-04T14:24:05;1.25;;;0.88;;
26946;SDS011;14501;52.282;10.560;2024-02-04T14:26:31;1.30;;;0.60;;
26946;SDS011;14501;52.282;10.560;2024-02-04T14:28:57;1.10;;;0.90;;
26946;SDS011;14501;52.282;10.560;2024-02-04T14:31:23;0.85;;;0.80;;
26946;SDS011;14501;52.282;10.560;2024-02-04T14:33:49;1.58;;;0.73;;
26946;SDS011;14501;52.282;10.560;2024-02-04T14:36:15;2.22;;;0.73;;
26946;SDS011;14501;52.282;10.560;2024-02-04T14:38:41;3.05;;;1.10;;
26946;SDS011;14501;52.282;10.560;2024-02-04T14:41:07;1.35;;;0.80;;
26946;SDS011;14501;52.282;10.560;2024-02-04T14:43:33;1.80;;;0.70;;
26946;SDS011;14501;52.282;10.560;2024-02-04T14:45:59;1.08;;;0.70;;
26946;SDS011;14501;52.282;10.560;2024-02-04T14:48:25;1.48;;;0.90;;